createdAt,value
2023-02-07T00:00:16.888Z,11.90
2023-02-07T00:03:20.385Z,11.80
2023-02-07T00:06:28.802Z,11.80
2023-02-07T00:09:30.800Z,11.80
2023-02-07T00:12:34.378Z,11.80
2023-02-07T00:15:36.903Z,11.70
2023-02-07T00:18:40.223Z,11.70
2023-02-07T00:21:42.416Z,11.60
2023-02-07T00:24:44.572Z,11.60
2023-02-07T00:27:46.858Z,11.60
2023-02-07T00:30:49.310Z,11.50
2023-02-07T00:33:53.905Z,11.50
2023-02-07T00:36:56.073Z,11.40
2023-02-07T00:39:58.085Z,11.40
2023-02-07T00:43:00.114Z,11.30
2023-02-07T00:46:04.237Z,11.30
2023-02-07T00:49:07.714Z,11.20
2023-02-07T00:52:09.762Z,11.20
2023-02-07T00:55:11.786Z,11.10
2023-02-07T00:58:13.909Z,11.10
2023-02-07T01:01:17.019Z,11.10
2023-02-07T01:04:19.077Z,11.00
2023-02-07T01:07:23.056Z,11.00
2023-02-07T01:10:25.201Z,10.90
2023-02-07T01:13:27.211Z,10.90
2023-02-07T01:16:34.707Z,10.90
2023-02-07T01:19:36.721Z,10.90
2023-02-07T01:22:39.933Z,10.80
2023-02-07T01:25:44.296Z,10.80
2023-02-07T01:28:46.657Z,10.80
2023-02-07T01:31:48.889Z,10.80
2023-02-07T01:34:50.954Z,10.80
2023-02-07T01:37:53.138Z,10.70
2023-02-07T01:40:55.359Z,10.70
2023-02-07T01:44:05.678Z,10.70
2023-02-07T01:47:12.402Z,10.70
2023-02-07T01:50:15.376Z,10.70
2023-02-07T01:53:21.341Z,10.60
2023-02-07T01:56:31.584Z,10.60
2023-02-07T01:59:38.907Z,10.60
2023-02-07T02:02:41.189Z,10.50
2023-02-07T02:05:44.133Z,10.40
2023-02-07T02:08:47.090Z,10.40
2023-02-07T02:11:55.596Z,10.30
2023-02-07T02:15:23.310Z,10.30
2023-02-07T02:19:09.724Z,10.30
2023-02-07T02:22:31.070Z,10.20
2023-02-07T02:26:04.095Z,10.10
2023-02-07T02:29:24.929Z,10.00
2023-02-07T02:33:00.705Z,10.00
2023-02-07T02:36:05.458Z,9.90
2023-02-07T02:39:26.083Z,9.80
2023-02-07T02:42:36.057Z,9.70
2023-02-07T02:45:51.989Z,9.60
2023-02-07T02:48:55.018Z,9.60
2023-02-07T02:51:57.623Z,9.50
2023-02-07T02:54:59.653Z,9.50
2023-02-07T02:58:10.372Z,9.50
2023-02-07T03:01:52.767Z,9.50
2023-02-07T03:05:23.438Z,9.50
2023-02-07T03:08:41.731Z,9.40
2023-02-07T03:12:16.345Z,9.40
2023-02-07T03:15:24.335Z,9.40
2023-02-07T03:18:43.553Z,9.40
2023-02-07T03:21:47.345Z,9.40
2023-02-07T03:24:54.958Z,9.30
2023-02-07T03:27:57.634Z,9.30
2023-02-07T03:31:02.032Z,9.40
2023-02-07T03:34:11.330Z,9.30
2023-02-07T03:37:35.448Z,9.30
2023-02-07T03:40:43.709Z,9.20
2023-02-07T03:43:46.779Z,9.20
2023-02-07T03:46:51.478Z,9.20
2023-02-07T03:49:53.914Z,9.20
2023-02-07T03:52:56.298Z,9.20
2023-02-07T03:55:59.404Z,9.20
2023-02-07T03:59:01.386Z,9.20
2023-02-07T04:02:03.904Z,9.20
2023-02-07T04:05:06.704Z,9.10
2023-02-07T04:08:08.713Z,9.10
2023-02-07T04:11:10.975Z,9.10
2023-02-07T04:14:23.102Z,9.00
2023-02-07T04:17:25.182Z,9.10
2023-02-07T04:20:27.229Z,9.00
2023-02-07T04:23:29.681Z,9.00
2023-02-07T04:26:31.780Z,9.00
2023-02-07T04:29:33.938Z,9.00
2023-02-07T04:32:35.915Z,9.00
2023-02-07T04:35:38.231Z,8.90
2023-02-07T04:38:41.160Z,8.90
2023-02-07T04:41:43.222Z,8.80
2023-02-07T04:44:45.282Z,8.80
2023-02-07T04:47:47.355Z,8.80
2023-02-07T04:50:50.484Z,8.80
2023-02-07T04:53:52.514Z,8.80
2023-02-07T04:56:54.504Z,8.70
2023-02-07T04:59:56.498Z,8.70
2023-02-07T05:03:00.556Z,8.70
2023-02-07T05:06:02.858Z,8.70
2023-02-07T05:09:04.845Z,8.60
2023-02-07T05:12:07.154Z,8.60
2023-02-07T05:15:19.308Z,8.60
2023-02-07T05:18:31.251Z,8.50
2023-02-07T05:21:33.612Z,8.50
2023-02-07T05:24:35.775Z,8.50
2023-02-07T05:27:38.366Z,8.50
2023-02-07T05:30:40.475Z,8.50
2023-02-07T05:33:42.544Z,8.50
2023-02-07T05:36:44.864Z,8.50
2023-02-07T05:39:46.866Z,8.40
2023-02-07T05:42:48.994Z,8.30
2023-02-07T05:45:51.105Z,8.30
2023-02-07T05:48:53.125Z,8.30
2023-02-07T05:51:55.143Z,8.30
2023-02-07T05:54:58.144Z,8.30
2023-02-07T05:58:00.186Z,8.30
2023-02-07T06:01:02.783Z,8.30
2023-02-07T06:04:05.230Z,8.30
2023-02-07T06:07:07.250Z,8.30
2023-02-07T06:10:09.784Z,8.30
2023-02-07T06:13:11.882Z,8.20
2023-02-07T06:16:13.999Z,8.30
2023-02-07T06:19:16.325Z,8.20
2023-02-07T06:22:18.425Z,8.20
2023-02-07T06:25:21.405Z,8.20
2023-02-07T06:28:24.599Z,8.20
2023-02-07T06:31:27.620Z,8.20
2023-02-07T06:34:29.715Z,8.20
2023-02-07T06:37:32.224Z,8.20
2023-02-07T06:40:34.278Z,8.10
2023-02-07T06:43:36.426Z,8.10
2023-02-07T06:46:38.492Z,8.10
2023-02-07T06:49:41.006Z,8.10
2023-02-07T06:52:43.135Z,8.10
2023-02-07T06:55:45.851Z,8.10
2023-02-07T06:58:47.965Z,8.00
2023-02-07T07:01:50.287Z,8.00
2023-02-07T07:04:53.374Z,8.00
2023-02-07T07:07:56.530Z,8.00
2023-02-07T07:10:58.591Z,8.00
2023-02-07T07:14:00.762Z,8.00
2023-02-07T07:17:02.942Z,8.00
2023-02-07T07:20:05.943Z,8.00
2023-02-07T07:23:08.063Z,7.90
2023-02-07T07:26:10.041Z,7.90
2023-02-07T07:29:12.347Z,7.90
2023-02-07T07:32:28.597Z,7.90
2023-02-07T07:35:35.315Z,7.90
2023-02-07T07:41:45.379Z,7.90
2023-02-07T07:44:47.371Z,7.90
2023-02-07T07:47:49.477Z,7.90
2023-02-07T07:50:52.119Z,7.90
2023-02-07T07:53:54.168Z,8.00
2023-02-07T07:56:56.440Z,8.10
2023-02-07T07:59:58.891Z,8.70
2023-02-07T08:03:01.117Z,9.30
2023-02-07T08:06:03.341Z,10.00
2023-02-07T08:09:05.504Z,10.80
2023-02-07T08:12:08.678Z,11.30
2023-02-07T08:15:10.713Z,12.00
2023-02-07T08:18:12.842Z,11.90
2023-02-07T08:21:17.244Z,12.50
2023-02-07T08:24:19.234Z,12.60
2023-02-07T08:27:21.329Z,13.30
2023-02-07T08:30:24.796Z,14.10
2023-02-07T08:33:28.855Z,14.70
2023-02-07T08:36:32.215Z,15.10
2023-02-07T08:39:38.347Z,15.70
2023-02-07T08:42:40.650Z,15.90
2023-02-07T08:45:46.822Z,15.80
2023-02-07T08:48:49.035Z,16.00
2023-02-07T08:51:52.956Z,16.80
2023-02-07T08:54:55.066Z,17.30
2023-02-07T08:57:59.900Z,17.50
2023-02-07T09:01:02.075Z,17.00
2023-02-07T09:04:04.421Z,17.20
2023-02-07T09:07:06.478Z,18.00
2023-02-07T09:10:10.713Z,17.90
2023-02-07T09:13:12.750Z,18.70
2023-02-07T09:16:16.134Z,18.60
2023-02-07T09:19:18.455Z,18.40
2023-02-07T09:22:20.600Z,17.90
2023-02-07T09:25:22.648Z,18.20
2023-02-07T09:28:24.786Z,18.80
2023-02-07T09:31:27.495Z,18.40
2023-02-07T09:34:29.643Z,18.30
2023-02-07T09:37:39.977Z,18.90
2023-02-07T09:40:52.328Z,20.10
2023-02-07T09:44:15.995Z,21.30
2023-02-07T09:47:27.654Z,21.50
2023-02-07T09:50:42.006Z,21.50
2023-02-07T09:54:00.622Z,22.40
2023-02-07T09:57:18.385Z,23.60
2023-02-07T10:00:37.873Z,22.90
2023-02-07T10:04:01.921Z,21.00
2023-02-07T10:07:08.036Z,21.00
2023-02-07T10:10:17.828Z,20.50
2023-02-07T10:13:54.854Z,20.30
2023-02-07T10:17:31.593Z,20.30
2023-02-07T10:20:48.597Z,20.30
2023-02-07T10:24:06.628Z,19.50
2023-02-07T10:27:13.957Z,20.50
2023-02-07T10:30:20.882Z,21.20
2023-02-07T10:33:29.543Z,21.40
2023-02-07T10:36:34.418Z,21.90
2023-02-07T10:39:53.849Z,20.50
2023-02-07T10:43:17.502Z,19.50
2023-02-07T10:46:22.436Z,19.40
2023-02-07T10:49:28.669Z,19.10
2023-02-07T10:52:35.778Z,20.40
2023-02-07T10:55:46.587Z,19.60
2023-02-07T10:58:49.579Z,20.00
2023-02-07T11:01:54.653Z,19.40
2023-02-07T11:05:16.092Z,19.40
2023-02-07T11:08:33.625Z,20.80
2023-02-07T11:11:38.420Z,21.50
2023-02-07T11:14:45.676Z,22.20
2023-02-07T11:17:57.185Z,20.80
2023-02-07T11:20:59.554Z,20.30
2023-02-07T11:24:06.426Z,19.70
2023-02-07T11:27:24.512Z,19.60
2023-02-07T11:30:29.306Z,20.70
2023-02-07T11:33:34.814Z,20.50
2023-02-07T11:36:37.140Z,21.00
2023-02-07T11:39:40.223Z,20.00
2023-02-07T11:42:42.603Z,19.50
2023-02-07T11:45:51.445Z,19.50
2023-02-07T11:48:56.409Z,19.00
2023-02-07T11:52:01.912Z,19.70
2023-02-07T11:55:09.473Z,20.30
2023-02-07T11:58:35.144Z,20.70
2023-02-07T12:01:37.967Z,19.90
2023-02-07T12:04:41.468Z,19.90
2023-02-07T12:07:49.772Z,19.00
2023-02-07T12:11:10.294Z,17.80
2023-02-07T12:14:35.542Z,17.10
2023-02-07T12:18:01.868Z,15.90
2023-02-07T12:21:14.491Z,15.10
2023-02-07T12:24:49.280Z,14.60
2023-02-07T12:27:56.032Z,14.80
2023-02-07T12:31:06.535Z,14.60
2023-02-07T12:34:30.725Z,14.70
2023-02-07T12:38:09.179Z,14.50
2023-02-07T12:41:21.463Z,14.10
2023-02-07T12:44:51.058Z,13.60
2023-02-07T12:48:17.622Z,13.50
2023-02-07T12:51:33.086Z,13.40
2023-02-07T12:55:11.899Z,13.20
2023-02-07T12:58:31.722Z,13.30
2023-02-07T13:01:37.664Z,13.30
2023-02-07T13:05:23.034Z,13.40
2023-02-07T13:08:47.436Z,13.60
2023-02-07T13:12:01.117Z,13.70
2023-02-07T13:15:21.558Z,13.70
2023-02-07T13:18:58.192Z,13.60
2023-02-07T13:22:15.916Z,13.50
2023-02-07T13:25:32.857Z,13.60
2023-02-07T13:28:58.374Z,13.70
2023-02-07T13:32:12.515Z,13.70
2023-02-07T13:35:26.356Z,13.90
2023-02-07T13:38:58.153Z,13.80
2023-02-07T13:42:24.994Z,13.80
2023-02-07T13:46:09.185Z,13.40
2023-02-07T13:49:21.605Z,13.30
2023-02-07T13:52:41.353Z,13.40
2023-02-07T13:55:45.609Z,13.40
2023-02-07T13:59:15.056Z,13.20
2023-02-07T14:02:20.339Z,13.20
2023-02-07T14:05:28.674Z,13.30
2023-02-07T14:08:30.799Z,13.40
2023-02-07T14:11:41.420Z,13.50
2023-02-07T14:14:53.897Z,13.70
2023-02-07T14:18:06.710Z,13.90
2023-02-07T14:21:23.718Z,14.00
2023-02-07T14:24:32.947Z,14.00
2023-02-07T14:27:42.700Z,14.20
2023-02-07T14:30:54.212Z,14.30
2023-02-07T14:34:15.787Z,14.20
2023-02-07T14:37:36.512Z,14.30
2023-02-07T14:40:44.716Z,14.20
2023-02-07T14:44:08.002Z,14.20
2023-02-07T14:47:24.102Z,14.10
2023-02-07T14:50:32.890Z,14.00
2023-02-07T14:53:40.380Z,13.90
2023-02-07T14:57:03.734Z,13.90
2023-02-07T15:00:28.955Z,13.80
2023-02-07T15:03:33.950Z,13.90
2023-02-07T15:06:43.590Z,13.90
2023-02-07T15:09:46.178Z,13.90
2023-02-07T15:12:49.919Z,14.00
2023-02-07T15:16:08.223Z,14.10
2023-02-07T15:19:21.034Z,14.10
2023-02-07T15:22:29.965Z,14.20
2023-02-07T15:25:36.332Z,14.40
2023-02-07T15:28:38.757Z,14.40
2023-02-07T15:31:41.911Z,14.50
2023-02-07T15:34:45.400Z,14.50
2023-02-07T15:37:49.785Z,14.50
2023-02-07T15:40:54.408Z,14.60
2023-02-07T15:44:03.808Z,14.50
2023-02-07T15:47:23.475Z,14.40
2023-02-07T15:50:28.408Z,14.30
2023-02-07T15:53:31.712Z,14.30
2023-02-07T15:56:34.128Z,14.40
2023-02-07T15:59:39.010Z,14.40
2023-02-07T16:02:43.268Z,14.40
2023-02-07T16:05:45.540Z,14.40
2023-02-07T16:08:58.628Z,14.50
2023-02-07T16:12:02.253Z,14.70
2023-02-07T16:15:26.930Z,14.80
2023-02-07T16:18:43.353Z,14.80
2023-02-07T16:21:50.796Z,14.90
2023-02-07T16:24:53.085Z,14.80
2023-02-07T16:27:55.466Z,14.60
2023-02-07T16:30:59.762Z,14.40
2023-02-07T16:34:02.726Z,14.40
2023-02-07T16:37:04.857Z,14.30
2023-02-07T16:40:07.658Z,14.20
2023-02-07T16:43:09.746Z,14.20
2023-02-07T16:46:11.836Z,14.10
2023-02-07T16:49:16.220Z,14.00
2023-02-07T16:52:18.272Z,14.00
2023-02-07T16:55:21.001Z,14.00
2023-02-07T16:58:28.677Z,14.00
2023-02-07T17:01:31.545Z,13.90
2023-02-07T17:04:33.574Z,13.90
2023-02-07T17:07:35.744Z,13.90
2023-02-07T17:10:38.542Z,14.00
2023-02-07T17:13:40.923Z,14.00
2023-02-07T17:16:44.118Z,14.10
2023-02-07T17:19:47.701Z,14.10
2023-02-07T17:22:51.413Z,14.00
2023-02-07T17:25:53.518Z,14.00
2023-02-07T17:28:55.988Z,14.00
2023-02-07T17:32:00.760Z,13.90
2023-02-07T17:35:03.047Z,13.90
2023-02-07T17:38:06.612Z,13.80
2023-02-07T17:41:13.128Z,13.80
2023-02-07T17:44:21.287Z,13.70
2023-02-07T17:47:23.822Z,13.70
2023-02-07T17:50:39.657Z,13.60
2023-02-07T17:53:41.857Z,13.60
2023-02-07T17:56:43.987Z,13.60
2023-02-07T17:59:47.382Z,13.50
2023-02-07T18:02:49.937Z,13.40
2023-02-07T18:05:52.126Z,13.40
2023-02-07T18:08:56.468Z,13.20
2023-02-07T18:12:01.836Z,13.20
2023-02-07T18:15:09.124Z,13.10
2023-02-07T18:18:13.858Z,13.10
2023-02-07T18:21:17.004Z,13.00
2023-02-07T18:24:19.266Z,13.00
2023-02-07T18:27:21.593Z,12.90
2023-02-07T18:30:26.639Z,12.90
2023-02-07T18:33:29.364Z,12.80
2023-02-07T18:36:40.282Z,12.80
2023-02-07T18:39:43.134Z,12.80
2023-02-07T18:42:45.235Z,12.80
2023-02-07T18:45:48.450Z,12.70
2023-02-07T18:48:58.500Z,12.70
2023-02-07T18:52:01.011Z,12.70
2023-02-07T18:55:06.069Z,12.70
2023-02-07T18:58:09.303Z,12.70
2023-02-07T19:01:19.320Z,12.60
2023-02-07T19:04:23.180Z,12.60
2023-02-07T19:07:25.465Z,12.60
2023-02-07T19:10:27.612Z,12.50
2023-02-07T19:13:30.989Z,12.50
2023-02-07T19:16:33.216Z,12.50
2023-02-07T19:19:35.714Z,12.50
2023-02-07T19:22:37.808Z,12.40
2023-02-07T19:25:47.551Z,12.40
2023-02-07T19:28:52.847Z,12.40
2023-02-07T19:32:04.075Z,12.40
2023-02-07T19:35:06.531Z,12.40
2023-02-07T19:38:08.620Z,12.40
2023-02-07T19:41:10.762Z,12.40
2023-02-07T19:44:13.236Z,12.30
2023-02-07T19:47:16.295Z,12.30
2023-02-07T19:50:19.609Z,12.30
2023-02-07T19:53:22.988Z,12.30
2023-02-07T19:56:27.530Z,12.30
2023-02-07T19:59:29.662Z,12.30
2023-02-07T20:02:33.097Z,12.20
2023-02-07T20:05:35.231Z,12.20
2023-02-07T20:08:38.904Z,12.20
2023-02-07T20:11:40.963Z,12.20
2023-02-07T20:14:43.244Z,12.20
2023-02-07T20:17:45.629Z,12.10
2023-02-07T20:20:48.343Z,12.20
2023-02-07T20:23:52.247Z,12.10
2023-02-07T20:26:54.282Z,12.10
2023-02-07T20:29:56.715Z,12.10
2023-02-07T20:32:58.939Z,12.10
2023-02-07T20:36:01.062Z,12.00
2023-02-07T20:39:03.335Z,12.00
2023-02-07T20:42:05.811Z,12.00
2023-02-07T20:45:08.341Z,11.90
2023-02-07T20:48:13.469Z,11.90
2023-02-07T20:51:15.428Z,11.90
2023-02-07T20:54:20.113Z,11.80
2023-02-07T20:57:22.082Z,11.80
2023-02-07T21:00:24.261Z,11.80
2023-02-07T21:03:26.324Z,11.80
2023-02-07T21:06:28.968Z,11.80
2023-02-07T21:09:32.010Z,11.70
2023-02-07T21:12:34.081Z,11.70
2023-02-07T21:15:36.085Z,11.70
2023-02-07T21:18:38.218Z,11.60
2023-02-07T21:21:40.421Z,11.60
2023-02-07T21:24:43.734Z,11.60
2023-02-07T21:27:47.236Z,11.60
2023-02-07T21:30:49.343Z,11.60
2023-02-07T21:33:51.582Z,11.50
2023-02-07T21:36:53.928Z,11.50
2023-02-07T21:39:56.035Z,11.50
2023-02-07T21:42:58.230Z,11.50
2023-02-07T21:46:11.922Z,11.50
2023-02-07T21:49:16.250Z,11.50
2023-02-07T21:52:18.605Z,11.50
2023-02-07T21:55:22.280Z,11.50
2023-02-07T21:58:24.315Z,11.50
2023-02-07T22:01:28.420Z,11.50
2023-02-07T22:04:30.643Z,11.50
2023-02-07T22:07:32.664Z,11.50
2023-02-07T22:10:36.317Z,11.50
2023-02-07T22:13:42.334Z,11.40
2023-02-07T22:16:44.516Z,11.40
2023-02-07T22:19:50.557Z,11.40
2023-02-07T22:22:52.638Z,11.30
2023-02-07T22:25:54.684Z,11.30
2023-02-07T22:28:59.300Z,11.30
2023-02-07T22:32:01.595Z,11.20
2023-02-07T22:35:03.759Z,11.20
2023-02-07T22:38:07.005Z,11.20
2023-02-07T22:41:09.472Z,11.10
2023-02-07T22:44:11.878Z,11.10
2023-02-07T22:47:14.271Z,11.10
2023-02-07T22:50:16.431Z,11.10
2023-02-07T22:53:18.522Z,11.00
2023-02-07T22:56:20.807Z,11.00
2023-02-07T22:59:22.892Z,11.00
2023-02-07T23:02:25.111Z,11.00
2023-02-07T23:05:27.416Z,10.90
2023-02-07T23:08:29.778Z,10.90
2023-02-07T23:11:32.065Z,10.90
2023-02-07T23:14:34.092Z,10.90
2023-02-07T23:17:36.105Z,10.90
2023-02-07T23:20:38.363Z,10.80
2023-02-07T23:23:41.189Z,10.90
2023-02-07T23:26:43.660Z,10.80
2023-02-07T23:29:45.991Z,10.80
2023-02-07T23:32:48.047Z,10.80
2023-02-07T23:35:50.074Z,10.80
2023-02-07T23:38:52.264Z,10.70
2023-02-07T23:41:54.426Z,10.70
2023-02-07T23:44:56.638Z,10.70
2023-02-07T23:48:02.377Z,10.60
2023-02-07T23:51:05.067Z,10.60
2023-02-07T23:54:07.174Z,10.60
2023-02-07T23:57:09.353Z,10.60
